sensor_id;sensor_type;location;lat;lon;timestamp;P1;durP1;ratioP1;P2;durP2;ratioP2
70367;SDS011;57789;53.868;10.728;2022-08-14T00:02:25;12.53;;;9.47;;
70367;SDS011;57789;53.868;10.728;2022-08-14T00:04:51;26.70;;;16.97;;
70367;SDS011;57789;53.868;10.728;2022-08-14T00:07:17;19.00;;;12.90;;
70367;SDS011;57789;53.868;10.728;2022-08-14T00:09:43;20.40;;;13.90;;
70367;SDS011;57789;53.868;10.728;2022-08-14T00:12:10;7.73;;;5.37;;
70367;SDS011;57789;53.868;10.728;2022-08-14T00:14:36;14.57;;;8.10;;
70367;SDS011;57789;53.868;10.728;2022-08-14T00:17:03;15.83;;;11.23;;
70367;SDS011;57789;53.868;10.728;2022-08-14T00:19:29;6.50;;;5.53;;
70367;SDS011;57789;53.868;10.728;2022-08-14T00:21:55;20.03;;;5.90;;
70367;SDS011;57789;53.868;10.728;2022-08-14T00:24:21;7.13;;;5.73;;
70367;SDS011;57789;53.868;10.728;2022-08-14T00:26:47;6.10;;;4.70;;
70367;SDS011;57789;53.868;10.728;2022-08-14T00:29:12;5.93;;;3.47;;
70367;SDS011;57789;53.868;10.728;2022-08-14T00:31:38;37.57;;;26.07;;
70367;SDS011;57789;53.868;10.728;2022-08-14T00:34:07;97.43;;;66.67;;
70367;SDS011;57789;53.868;10.728;2022-08-14T00:36:33;24.10;;;19.00;;
70367;SDS011;57789;53.868;10.728;2022-08-14T00:38:58;38.10;;;25.90;;
70367;SDS011;57789;53.868;10.728;2022-08-14T00:41:28;54.27;;;40.47;;
70367;SDS011;57789;53.868;10.728;2022-08-14T00:43:56;51.33;;;34.10;;
70367;SDS011;57789;53.868;10.728;2022-08-14T00:46:22;16.60;;;12.07;;
70367;SDS011;57789;53.868;10.728;2022-08-14T00:48:48;27.20;;;14.23;;
70367;SDS011;57789;53.868;10.728;2022-08-14T00:51:14;23.00;;;18.27;;
70367;SDS011;57789;53.868;10.728;2022-08-14T00:53:40;7.63;;;6.00;;
70367;SDS011;57789;53.868;10.728;2022-08-14T00:56:06;18.53;;;12.00;;
70367;SDS011;57789;53.868;10.728;2022-08-14T00:58:33;19.70;;;15.63;;
70367;SDS011;57789;53.868;10.728;2022-08-14T01:01:07;20.70;;;14.53;;
70367;SDS011;57789;53.868;10.728;2022-08-14T01:03:35;14.10;;;8.00;;
70367;SDS011;57789;53.868;10.728;2022-08-14T01:06:04;11.30;;;7.30;;
70367;SDS011;57789;53.868;10.728;2022-08-14T01:08:35;12.13;;;8.57;;
70367;SDS011;57789;53.868;10.728;2022-08-14T01:11:02;10.87;;;8.40;;
70367;SDS011;57789;53.868;10.728;2022-08-14T01:13:31;6.63;;;5.47;;
70367;SDS011;57789;53.868;10.728;2022-08-14T01:16:00;15.00;;;3.90;;
70367;SDS011;57789;53.868;10.728;2022-08-14T01:18:29;55.23;;;39.97;;
70367;SDS011;57789;53.868;10.728;2022-08-14T01:21:15;34.53;;;23.43;;
70367;SDS011;57789;53.868;10.728;2022-08-14T01:23:47;68.40;;;42.40;;
70367;SDS011;57789;53.868;10.728;2022-08-14T01:26:15;84.20;;;56.50;;
70367;SDS011;57789;53.868;10.728;2022-08-14T01:28:45;58.87;;;35.23;;
70367;SDS011;57789;53.868;10.728;2022-08-14T01:31:13;51.13;;;35.50;;
70367;SDS011;57789;53.868;10.728;2022-08-14T01:33:42;16.90;;;12.40;;
70367;SDS011;57789;53.868;10.728;2022-08-14T01:36:12;18.30;;;12.70;;
70367;SDS011;57789;53.868;10.728;2022-08-14T01:38:44;28.50;;;18.20;;
70367;SDS011;57789;53.868;10.728;2022-08-14T01:41:13;35.87;;;20.10;;
70367;SDS011;57789;53.868;10.728;2022-08-14T01:43:44;20.87;;;15.27;;
70367;SDS011;57789;53.868;10.728;2022-08-14T01:46:16;16.00;;;11.27;;
70367;SDS011;57789;53.868;10.728;2022-08-14T01:48:45;11.93;;;8.03;;
70367;SDS011;57789;53.868;10.728;2022-08-14T01:51:12;14.10;;;10.50;;
70367;SDS011;57789;53.868;10.728;2022-08-14T01:53:41;20.60;;;14.40;;
70367;SDS011;57789;53.868;10.728;2022-08-14T01:56:09;15.50;;;9.70;;
70367;SDS011;57789;53.868;10.728;2022-08-14T01:58:36;12.83;;;8.63;;
70367;SDS011;57789;53.868;10.728;2022-08-14T02:01:03;8.80;;;6.50;;
70367;SDS011;57789;53.868;10.728;2022-08-14T02:03:30;14.93;;;9.20;;
70367;SDS011;57789;53.868;10.728;2022-08-14T02:05:59;7.90;;;6.33;;
70367;SDS011;57789;53.868;10.728;2022-08-14T02:08:26;6.80;;;3.60;;
70367;SDS011;57789;53.868;10.728;2022-08-14T02:10:55;9.30;;;6.97;;
70367;SDS011;57789;53.868;10.728;2022-08-14T02:13:41;6.50;;;5.30;;
70367;SDS011;57789;53.868;10.728;2022-08-14T02:16:11;3.27;;;2.97;;
70367;SDS011;57789;53.868;10.728;2022-08-14T02:18:40;7.70;;;3.70;;
70367;SDS011;57789;53.868;10.728;2022-08-14T02:21:06;6.87;;;5.00;;
70367;SDS011;57789;53.868;10.728;2022-08-14T02:23:33;6.53;;;5.27;;
70367;SDS011;57789;53.868;10.728;2022-08-14T02:26:00;6.33;;;4.00;;
70367;SDS011;57789;53.868;10.728;2022-08-14T02:28:28;7.23;;;4.63;;
70367;SDS011;57789;53.868;10.728;2022-08-14T02:30:56;3.63;;;3.27;;
70367;SDS011;57789;53.868;10.728;2022-08-14T02:33:25;17.50;;;13.30;;
70367;SDS011;57789;53.868;10.728;2022-08-14T02:35:51;33.30;;;24.20;;
70367;SDS011;57789;53.868;10.728;2022-08-14T02:38:19;42.10;;;31.13;;
70367;SDS011;57789;53.868;10.728;2022-08-14T02:40:45;31.17;;;22.50;;
70367;SDS011;57789;53.868;10.728;2022-08-14T02:43:11;28.60;;;19.10;;
70367;SDS011;57789;53.868;10.728;2022-08-14T02:45:37;31.60;;;23.80;;
70367;SDS011;57789;53.868;10.728;2022-08-14T02:48:04;30.90;;;22.97;;
70367;SDS011;57789;53.868;10.728;2022-08-14T02:50:31;32.33;;;22.73;;
70367;SDS011;57789;53.868;10.728;2022-08-14T02:53:04;23.33;;;14.53;;
70367;SDS011;57789;53.868;10.728;2022-08-14T02:55:29;48.43;;;29.30;;
70367;SDS011;57789;53.868;10.728;2022-08-14T02:57:56;15.97;;;11.13;;
70367;SDS011;57789;53.868;10.728;2022-08-14T03:00:22;33.77;;;24.77;;
70367;SDS011;57789;53.868;10.728;2022-08-14T03:02:47;14.00;;;9.20;;
70367;SDS011;57789;53.868;10.728;2022-08-14T03:05:14;25.93;;;13.37;;
70367;SDS011;57789;53.868;10.728;2022-08-14T03:07:41;12.17;;;6.57;;
70367;SDS011;57789;53.868;10.728;2022-08-14T03:10:08;21.77;;;16.30;;
70367;SDS011;57789;53.868;10.728;2022-08-14T03:12:35;15.67;;;11.40;;
70367;SDS011;57789;53.868;10.728;2022-08-14T03:15:02;12.23;;;9.20;;
70367;SDS011;57789;53.868;10.728;2022-08-14T03:17:34;15.13;;;10.87;;
70367;SDS011;57789;53.868;10.728;2022-08-14T03:20:00;15.67;;;9.60;;
70367;SDS011;57789;53.868;10.728;2022-08-14T03:22:28;7.50;;;5.20;;
70367;SDS011;57789;53.868;10.728;2022-08-14T03:24:54;38.87;;;29.27;;
70367;SDS011;57789;53.868;10.728;2022-08-14T03:27:19;30.87;;;22.63;;
70367;SDS011;57789;53.868;10.728;2022-08-14T03:29:45;44.77;;;33.57;;
70367;SDS011;57789;53.868;10.728;2022-08-14T03:32:12;38.47;;;28.23;;
70367;SDS011;57789;53.868;10.728;2022-08-14T03:34:37;22.97;;;17.03;;
70367;SDS011;57789;53.868;10.728;2022-08-14T03:37:03;17.07;;;11.80;;
70367;SDS011;57789;53.868;10.728;2022-08-14T03:39:29;18.07;;;12.57;;
70367;SDS011;57789;53.868;10.728;2022-08-14T03:41:55;7.20;;;6.33;;
70367;SDS011;57789;53.868;10.728;2022-08-14T03:44:21;16.77;;;13.37;;
70367;SDS011;57789;53.868;10.728;2022-08-14T03:46:48;6.73;;;5.10;;
70367;SDS011;57789;53.868;10.728;2022-08-14T03:49:15;27.83;;;13.23;;
70367;SDS011;57789;53.868;10.728;2022-08-14T03:51:44;20.20;;;12.03;;
70367;SDS011;57789;53.868;10.728;2022-08-14T03:54:10;9.20;;;7.30;;
70367;SDS011;57789;53.868;10.728;2022-08-14T03:56:36;9.20;;;6.03;;
70367;SDS011;57789;53.868;10.728;2022-08-14T03:59:08;13.40;;;9.93;;
70367;SDS011;57789;53.868;10.728;2022-08-14T04:01:36;10.87;;;5.93;;
70367;SDS011;57789;53.868;10.728;2022-08-14T04:04:03;8.03;;;6.20;;
70367;SDS011;57789;53.868;10.728;2022-08-14T04:06:31;11.87;;;9.53;;
70367;SDS011;57789;53.868;10.728;2022-08-14T04:08:57;9.83;;;8.30;;
70367;SDS011;57789;53.868;10.728;2022-08-14T04:11:23;14.10;;;6.90;;
70367;SDS011;57789;53.868;10.728;2022-08-14T04:13:48;11.93;;;7.27;;
70367;SDS011;57789;53.868;10.728;2022-08-14T04:16:15;7.67;;;4.70;;
70367;SDS011;57789;53.868;10.728;2022-08-14T04:18:46;6.90;;;5.20;;
70367;SDS011;57789;53.868;10.728;2022-08-14T04:21:15;7.20;;;4.77;;
70367;SDS011;57789;53.868;10.728;2022-08-14T04:23:42;6.00;;;3.70;;
70367;SDS011;57789;53.868;10.728;2022-08-14T04:26:10;6.17;;;4.57;;
70367;SDS011;57789;53.868;10.728;2022-08-14T04:28:38;4.70;;;4.20;;
70367;SDS011;57789;53.868;10.728;2022-08-14T04:31:05;6.10;;;5.00;;
70367;SDS011;57789;53.868;10.728;2022-08-14T04:33:31;4.00;;;3.30;;
70367;SDS011;57789;53.868;10.728;2022-08-14T04:35:57;5.40;;;3.93;;
70367;SDS011;57789;53.868;10.728;2022-08-14T04:38:23;13.33;;;8.00;;
70367;SDS011;57789;53.868;10.728;2022-08-14T04:41:07;24.10;;;10.43;;
70367;SDS011;57789;53.868;10.728;2022-08-14T04:43:52;34.13;;;23.50;;
70367;SDS011;57789;53.868;10.728;2022-08-14T04:46:18;13.13;;;8.87;;
70367;SDS011;57789;53.868;10.728;2022-08-14T04:48:46;49.43;;;33.73;;
70367;SDS011;57789;53.868;10.728;2022-08-14T04:51:16;41.83;;;26.67;;
70367;SDS011;57789;53.868;10.728;2022-08-14T04:53:44;14.50;;;7.30;;
70367;SDS011;57789;53.868;10.728;2022-08-14T04:56:15;12.50;;;9.70;;
70367;SDS011;57789;53.868;10.728;2022-08-14T04:58:44;13.13;;;7.40;;
70367;SDS011;57789;53.868;10.728;2022-08-14T05:01:11;9.00;;;5.77;;
70367;SDS011;57789;53.868;10.728;2022-08-14T05:03:39;21.70;;;15.90;;
70367;SDS011;57789;53.868;10.728;2022-08-14T05:06:08;6.43;;;4.90;;
70367;SDS011;57789;53.868;10.728;2022-08-14T05:08:35;11.47;;;7.00;;
70367;SDS011;57789;53.868;10.728;2022-08-14T05:11:02;22.33;;;15.23;;
70367;SDS011;57789;53.868;10.728;2022-08-14T05:13:30;7.10;;;4.10;;
70367;SDS011;57789;53.868;10.728;2022-08-14T05:15:57;5.83;;;3.20;;
70367;SDS011;57789;53.868;10.728;2022-08-14T05:18:25;12.63;;;7.17;;
70367;SDS011;57789;53.868;10.728;2022-08-14T05:20:53;6.17;;;3.07;;
70367;SDS011;57789;53.868;10.728;2022-08-14T05:23:21;6.77;;;3.10;;
70367;SDS011;57789;53.868;10.728;2022-08-14T05:25:49;17.90;;;7.30;;
70367;SDS011;57789;53.868;10.728;2022-08-14T05:28:24;7.77;;;3.20;;
70367;SDS011;57789;53.868;10.728;2022-08-14T05:30:52;7.43;;;2.87;;
70367;SDS011;57789;53.868;10.728;2022-08-14T05:33:27;12.83;;;2.60;;
70367;SDS011;57789;53.868;10.728;2022-08-14T05:35:56;20.20;;;5.37;;
70367;SDS011;57789;53.868;10.728;2022-08-14T05:38:25;13.40;;;4.70;;
70367;SDS011;57789;53.868;10.728;2022-08-14T05:40:53;14.60;;;4.63;;
70367;SDS011;57789;53.868;10.728;2022-08-14T05:43:21;8.93;;;4.40;;
70367;SDS011;57789;53.868;10.728;2022-08-14T05:45:47;6.20;;;3.03;;
70367;SDS011;57789;53.868;10.728;2022-08-14T05:48:13;6.83;;;2.73;;
70367;SDS011;57789;53.868;10.728;2022-08-14T05:50:40;4.07;;;2.73;;
70367;SDS011;57789;53.868;10.728;2022-08-14T05:53:06;6.17;;;2.90;;
70367;SDS011;57789;53.868;10.728;2022-08-14T05:55:32;3.80;;;2.93;;
70367;SDS011;57789;53.868;10.728;2022-08-14T05:57:59;4.03;;;2.63;;
70367;SDS011;57789;53.868;10.728;2022-08-14T06:00:34;2.90;;;1.97;;
70367;SDS011;57789;53.868;10.728;2022-08-14T06:03:01;5.13;;;2.57;;
70367;SDS011;57789;53.868;10.728;2022-08-14T06:05:28;8.33;;;2.27;;
70367;SDS011;57789;53.868;10.728;2022-08-14T06:07:54;9.10;;;3.03;;
70367;SDS011;57789;53.868;10.728;2022-08-14T06:10:21;9.30;;;4.40;;
70367;SDS011;57789;53.868;10.728;2022-08-14T06:12:47;10.63;;;4.70;;
70367;SDS011;57789;53.868;10.728;2022-08-14T06:15:13;5.63;;;2.97;;
70367;SDS011;57789;53.868;10.728;2022-08-14T06:17:46;11.50;;;2.80;;
70367;SDS011;57789;53.868;10.728;2022-08-14T06:20:16;4.30;;;2.13;;
70367;SDS011;57789;53.868;10.728;2022-08-14T06:22:43;3.47;;;2.40;;
70367;SDS011;57789;53.868;10.728;2022-08-14T06:25:10;6.83;;;2.33;;
70367;SDS011;57789;53.868;10.728;2022-08-14T06:27:38;3.47;;;2.27;;
70367;SDS011;57789;53.868;10.728;2022-08-14T06:30:20;6.17;;;2.80;;
70367;SDS011;57789;53.868;10.728;2022-08-14T06:32:48;4.80;;;2.10;;
70367;SDS011;57789;53.868;10.728;2022-08-14T06:35:14;4.73;;;1.80;;
70367;SDS011;57789;53.868;10.728;2022-08-14T06:40:23;5.77;;;3.00;;
70367;SDS011;57789;53.868;10.728;2022-08-14T06:42:56;9.30;;;3.60;;
70367;SDS011;57789;53.868;10.728;2022-08-14T06:45:24;7.43;;;2.73;;
70367;SDS011;57789;53.868;10.728;2022-08-14T06:47:50;6.33;;;2.50;;
70367;SDS011;57789;53.868;10.728;2022-08-14T06:50:17;13.67;;;2.50;;
70367;SDS011;57789;53.868;10.728;2022-08-14T06:52:44;3.30;;;2.03;;
70367;SDS011;57789;53.868;10.728;2022-08-14T06:55:11;4.93;;;2.83;;
70367;SDS011;57789;53.868;10.728;2022-08-14T06:57:41;5.23;;;2.63;;
70367;SDS011;57789;53.868;10.728;2022-08-14T07:02:40;5.83;;;2.30;;
70367;SDS011;57789;53.868;10.728;2022-08-14T07:05:25;8.60;;;2.80;;
70367;SDS011;57789;53.868;10.728;2022-08-14T07:08:17;10.83;;;2.27;;
70367;SDS011;57789;53.868;10.728;2022-08-14T07:10:45;5.60;;;2.77;;
70367;SDS011;57789;53.868;10.728;2022-08-14T07:13:13;4.73;;;2.23;;
70367;SDS011;57789;53.868;10.728;2022-08-14T07:15:40;4.97;;;2.10;;
70367;SDS011;57789;53.868;10.728;2022-08-14T07:18:06;7.10;;;2.83;;
70367;SDS011;57789;53.868;10.728;2022-08-14T07:20:33;3.87;;;2.00;;
70367;SDS011;57789;53.868;10.728;2022-08-14T07:23:00;6.57;;;3.30;;
70367;SDS011;57789;53.868;10.728;2022-08-14T07:25:27;8.30;;;2.43;;
70367;SDS011;57789;53.868;10.728;2022-08-14T07:27:53;11.43;;;3.10;;
70367;SDS011;57789;53.868;10.728;2022-08-14T07:30:19;11.07;;;2.33;;
70367;SDS011;57789;53.868;10.728;2022-08-14T07:32:46;8.80;;;2.87;;
70367;SDS011;57789;53.868;10.728;2022-08-14T07:35:12;7.07;;;2.93;;
70367;SDS011;57789;53.868;10.728;2022-08-14T07:37:38;6.40;;;2.50;;
70367;SDS011;57789;53.868;10.728;2022-08-14T07:40:04;6.53;;;2.70;;
70367;SDS011;57789;53.868;10.728;2022-08-14T07:42:30;8.07;;;2.47;;
70367;SDS011;57789;53.868;10.728;2022-08-14T07:44:56;14.13;;;2.70;;
70367;SDS011;57789;53.868;10.728;2022-08-14T07:47:23;9.80;;;2.07;;
70367;SDS011;57789;53.868;10.728;2022-08-14T07:50:03;12.20;;;2.97;;
70367;SDS011;57789;53.868;10.728;2022-08-14T07:52:38;6.20;;;2.23;;
70367;SDS011;57789;53.868;10.728;2022-08-14T07:55:05;4.93;;;2.40;;
70367;SDS011;57789;53.868;10.728;2022-08-14T07:57:32;3.50;;;2.37;;
70367;SDS011;57789;53.868;10.728;2022-08-14T07:59:58;5.90;;;2.20;;
70367;SDS011;57789;53.868;10.728;2022-08-14T08:02:23;3.63;;;2.13;;
70367;SDS011;57789;53.868;10.728;2022-08-14T08:04:54;5.70;;;2.27;;
70367;SDS011;57789;53.868;10.728;2022-08-14T08:07:23;7.40;;;2.53;;
70367;SDS011;57789;53.868;10.728;2022-08-14T08:09:54;14.83;;;2.67;;
70367;SDS011;57789;53.868;10.728;2022-08-14T08:12:24;7.20;;;2.30;;
70367;SDS011;57789;53.868;10.728;2022-08-14T08:14:50;4.90;;;2.00;;
70367;SDS011;57789;53.868;10.728;2022-08-14T08:17:17;5.27;;;1.93;;
70367;SDS011;57789;53.868;10.728;2022-08-14T08:19:44;7.03;;;2.20;;
70367;SDS011;57789;53.868;10.728;2022-08-14T08:22:11;7.53;;;2.20;;
70367;SDS011;57789;53.868;10.728;2022-08-14T08:24:37;4.90;;;2.40;;
70367;SDS011;57789;53.868;10.728;2022-08-14T08:27:12;6.53;;;2.47;;
70367;SDS011;57789;53.868;10.728;2022-08-14T08:29:42;4.30;;;1.83;;
70367;SDS011;57789;53.868;10.728;2022-08-14T08:32:08;7.70;;;3.00;;
70367;SDS011;57789;53.868;10.728;2022-08-14T08:34:41;8.37;;;3.13;;
70367;SDS011;57789;53.868;10.728;2022-08-14T08:37:13;5.63;;;2.97;;
70367;SDS011;57789;53.868;10.728;2022-08-14T08:39:43;6.83;;;3.30;;
70367;SDS011;57789;53.868;10.728;2022-08-14T08:42:10;5.27;;;2.57;;
70367;SDS011;57789;53.868;10.728;2022-08-14T08:44:36;7.30;;;2.47;;
70367;SDS011;57789;53.868;10.728;2022-08-14T08:47:01;6.97;;;2.70;;
70367;SDS011;57789;53.868;10.728;2022-08-14T08:52:03;7.57;;;2.50;;
70367;SDS011;57789;53.868;10.728;2022-08-14T08:54:29;4.20;;;2.27;;
70367;SDS011;57789;53.868;10.728;2022-08-14T08:56:55;4.50;;;2.07;;
70367;SDS011;57789;53.868;10.728;2022-08-14T08:59:23;5.10;;;2.33;;
70367;SDS011;57789;53.868;10.728;2022-08-14T09:01:56;13.33;;;2.60;;
70367;SDS011;57789;53.868;10.728;2022-08-14T09:04:28;11.03;;;2.63;;
70367;SDS011;57789;53.868;10.728;2022-08-14T09:07:05;9.83;;;2.23;;
70367;SDS011;57789;53.868;10.728;2022-08-14T09:09:31;5.00;;;2.50;;
70367;SDS011;57789;53.868;10.728;2022-08-14T09:11:58;7.97;;;2.50;;
70367;SDS011;57789;53.868;10.728;2022-08-14T09:14:29;9.47;;;2.77;;
70367;SDS011;57789;53.868;10.728;2022-08-14T09:16:58;5.00;;;2.60;;
70367;SDS011;57789;53.868;10.728;2022-08-14T09:19:25;6.73;;;2.57;;
70367;SDS011;57789;53.868;10.728;2022-08-14T09:21:51;5.53;;;2.60;;
70367;SDS011;57789;53.868;10.728;2022-08-14T09:24:19;7.40;;;2.70;;
70367;SDS011;57789;53.868;10.728;2022-08-14T09:26:45;4.23;;;2.10;;
70367;SDS011;57789;53.868;10.728;2022-08-14T09:29:11;6.93;;;2.00;;
70367;SDS011;57789;53.868;10.728;2022-08-14T09:31:37;5.97;;;2.37;;
70367;SDS011;57789;53.868;10.728;2022-08-14T09:45:15;4.00;;;2.47;;
70367;SDS011;57789;53.868;10.728;2022-08-14T09:47:53;7.20;;;2.63;;
70367;SDS011;57789;53.868;10.728;2022-08-14T09:50:21;7.10;;;2.43;;
70367;SDS011;57789;53.868;10.728;2022-08-14T09:52:55;8.93;;;3.27;;
70367;SDS011;57789;53.868;10.728;2022-08-14T09:55:22;7.87;;;3.00;;
70367;SDS011;57789;53.868;10.728;2022-08-14T09:57:50;13.50;;;2.70;;
70367;SDS011;57789;53.868;10.728;2022-08-14T10:00:16;12.70;;;2.97;;
70367;SDS011;57789;53.868;10.728;2022-08-14T10:02:53;7.60;;;2.50;;
70367;SDS011;57789;53.868;10.728;2022-08-14T10:05:31;10.23;;;2.33;;
70367;SDS011;57789;53.868;10.728;2022-08-14T10:07:58;5.00;;;2.03;;
70367;SDS011;57789;53.868;10.728;2022-08-14T10:10:36;10.10;;;3.07;;
70367;SDS011;57789;53.868;10.728;2022-08-14T10:13:04;16.33;;;2.50;;
70367;SDS011;57789;53.868;10.728;2022-08-14T10:15:31;6.10;;;2.37;;
70367;SDS011;57789;53.868;10.728;2022-08-14T10:20:39;8.23;;;3.33;;
70367;SDS011;57789;53.868;10.728;2022-08-14T10:23:19;10.07;;;3.30;;
70367;SDS011;57789;53.868;10.728;2022-08-14T10:25:47;19.57;;;3.57;;
70367;SDS011;57789;53.868;10.728;2022-08-14T10:28:15;7.03;;;3.03;;
70367;SDS011;57789;53.868;10.728;2022-08-14T10:30:43;8.70;;;3.90;;
70367;SDS011;57789;53.868;10.728;2022-08-14T10:33:22;15.47;;;3.27;;
70367;SDS011;57789;53.868;10.728;2022-08-14T10:35:49;8.23;;;4.27;;
70367;SDS011;57789;53.868;10.728;2022-08-14T10:40:54;12.17;;;3.40;;
70367;SDS011;57789;53.868;10.728;2022-08-14T10:43:24;8.87;;;3.80;;
70367;SDS011;57789;53.868;10.728;2022-08-14T10:45:51;15.93;;;3.00;;
70367;SDS011;57789;53.868;10.728;2022-08-14T10:48:19;10.13;;;3.27;;
70367;SDS011;57789;53.868;10.728;2022-08-14T10:50:45;12.00;;;3.70;;
70367;SDS011;57789;53.868;10.728;2022-08-14T10:53:15;8.80;;;3.83;;
70367;SDS011;57789;53.868;10.728;2022-08-14T10:55:56;9.83;;;3.60;;
70367;SDS011;57789;53.868;10.728;2022-08-14T10:58:27;3.70;;;3.40;;
70367;SDS011;57789;53.868;10.728;2022-08-14T11:00:55;6.23;;;5.10;;
70367;SDS011;57789;53.868;10.728;2022-08-14T11:03:22;4.60;;;3.90;;
70367;SDS011;57789;53.868;10.728;2022-08-14T11:05:49;9.63;;;4.10;;
70367;SDS011;57789;53.868;10.728;2022-08-14T11:08:16;6.30;;;3.20;;
70367;SDS011;57789;53.868;10.728;2022-08-14T11:10:55;14.93;;;3.70;;
70367;SDS011;57789;53.868;10.728;2022-08-14T11:13:28;4.40;;;3.40;;
70367;SDS011;57789;53.868;10.728;2022-08-14T11:15:56;10.80;;;4.00;;
70367;SDS011;57789;53.868;10.728;2022-08-14T11:18:26;11.37;;;3.70;;
70367;SDS011;57789;53.868;10.728;2022-08-14T11:20:56;10.00;;;6.10;;
70367;SDS011;57789;53.868;10.728;2022-08-14T11:23:25;5.80;;;3.73;;
70367;SDS011;57789;53.868;10.728;2022-08-14T11:25:55;6.53;;;4.00;;
70367;SDS011;57789;53.868;10.728;2022-08-14T11:28:23;13.40;;;4.23;;
70367;SDS011;57789;53.868;10.728;2022-08-14T11:30:51;12.77;;;4.37;;
70367;SDS011;57789;53.868;10.728;2022-08-14T11:33:21;9.27;;;4.37;;
70367;SDS011;57789;53.868;10.728;2022-08-14T11:36:00;14.77;;;4.47;;
70367;SDS011;57789;53.868;10.728;2022-08-14T11:38:42;14.17;;;3.50;;
70367;SDS011;57789;53.868;10.728;2022-08-14T11:41:10;5.70;;;3.47;;
70367;SDS011;57789;53.868;10.728;2022-08-14T11:43:38;8.80;;;5.50;;
70367;SDS011;57789;53.868;10.728;2022-08-14T11:46:08;8.70;;;4.40;;
70367;SDS011;57789;53.868;10.728;2022-08-14T11:48:43;8.60;;;4.73;;
70367;SDS011;57789;53.868;10.728;2022-08-14T11:51:17;11.13;;;5.00;;
70367;SDS011;57789;53.868;10.728;2022-08-14T11:54:05;17.33;;;4.00;;
70367;SDS011;57789;53.868;10.728;2022-08-14T11:56:34;10.80;;;4.50;;
70367;SDS011;57789;53.868;10.728;2022-08-14T11:59:04;13.20;;;6.20;;
70367;SDS011;57789;53.868;10.728;2022-08-14T12:01:31;9.00;;;3.70;;
70367;SDS011;57789;53.868;10.728;2022-08-14T12:04:13;8.33;;;4.00;;
70367;SDS011;57789;53.868;10.728;2022-08-14T12:09:30;14.27;;;3.27;;
70367;SDS011;57789;53.868;10.728;2022-08-14T12:11:57;7.00;;;3.07;;
70367;SDS011;57789;53.868;10.728;2022-08-14T12:14:23;9.93;;;2.80;;
70367;SDS011;57789;53.868;10.728;2022-08-14T12:16:58;11.80;;;4.27;;
70367;SDS011;57789;53.868;10.728;2022-08-14T12:19:25;5.70;;;3.53;;
70367;SDS011;57789;53.868;10.728;2022-08-14T12:21:52;5.50;;;2.80;;
70367;SDS011;57789;53.868;10.728;2022-08-14T12:24:17;5.13;;;3.10;;
70367;SDS011;57789;53.868;10.728;2022-08-14T12:26:55;4.30;;;2.83;;
70367;SDS011;57789;53.868;10.728;2022-08-14T12:29:20;12.00;;;4.10;;
70367;SDS011;57789;53.868;10.728;2022-08-14T12:31:46;3.20;;;2.90;;
70367;SDS011;57789;53.868;10.728;2022-08-14T12:34:31;9.93;;;4.53;;
70367;SDS011;57789;53.868;10.728;2022-08-14T12:37:05;4.10;;;3.03;;
70367;SDS011;57789;53.868;10.728;2022-08-14T12:39:33;13.73;;;3.67;;
70367;SDS011;57789;53.868;10.728;2022-08-14T12:42:00;5.93;;;2.90;;
70367;SDS011;57789;53.868;10.728;2022-08-14T12:44:38;11.80;;;3.30;;
70367;SDS011;57789;53.868;10.728;2022-08-14T12:47:11;8.20;;;3.30;;
70367;SDS011;57789;53.868;10.728;2022-08-14T12:49:51;13.33;;;3.30;;
70367;SDS011;57789;53.868;10.728;2022-08-14T12:55:03;5.47;;;3.17;;
70367;SDS011;57789;53.868;10.728;2022-08-14T12:57:41;12.83;;;2.97;;
70367;SDS011;57789;53.868;10.728;2022-08-14T13:00:12;9.93;;;2.30;;
70367;SDS011;57789;53.868;10.728;2022-08-14T13:02:44;6.03;;;2.23;;
70367;SDS011;57789;53.868;10.728;2022-08-14T13:05:11;6.43;;;2.50;;
70367;SDS011;57789;53.868;10.728;2022-08-14T13:07:38;5.20;;;2.10;;
70367;SDS011;57789;53.868;10.728;2022-08-14T13:10:06;9.20;;;3.33;;
70367;SDS011;57789;53.868;10.728;2022-08-14T13:12:38;7.43;;;3.03;;
70367;SDS011;57789;53.868;10.728;2022-08-14T13:15:06;4.80;;;3.27;;
70367;SDS011;57789;53.868;10.728;2022-08-14T13:17:47;7.40;;;3.63;;
70367;SDS011;57789;53.868;10.728;2022-08-14T13:20:18;7.83;;;3.40;;
70367;SDS011;57789;53.868;10.728;2022-08-14T13:22:45;7.13;;;3.00;;
70367;SDS011;57789;53.868;10.728;2022-08-14T13:25:12;8.73;;;3.07;;
70367;SDS011;57789;53.868;10.728;2022-08-14T13:27:48;11.80;;;3.90;;
70367;SDS011;57789;53.868;10.728;2022-08-14T13:30:16;7.00;;;3.33;;
70367;SDS011;57789;53.868;10.728;2022-08-14T13:32:42;7.47;;;3.80;;
70367;SDS011;57789;53.868;10.728;2022-08-14T13:35:13;7.43;;;2.53;;
70367;SDS011;57789;53.868;10.728;2022-08-14T13:37:40;8.00;;;2.47;;
70367;SDS011;57789;53.868;10.728;2022-08-14T13:40:13;8.00;;;3.53;;
70367;SDS011;57789;53.868;10.728;2022-08-14T13:42:45;4.83;;;2.53;;
70367;SDS011;57789;53.868;10.728;2022-08-14T13:45:14;5.23;;;2.10;;
70367;SDS011;57789;53.868;10.728;2022-08-14T13:47:40;9.47;;;2.60;;
70367;SDS011;57789;53.868;10.728;2022-08-14T13:50:07;6.33;;;2.33;;
70367;SDS011;57789;53.868;10.728;2022-08-14T13:52:40;6.50;;;2.50;;
70367;SDS011;57789;53.868;10.728;2022-08-14T13:55:08;8.73;;;3.37;;
70367;SDS011;57789;53.868;10.728;2022-08-14T13:57:37;12.77;;;3.73;;
70367;SDS011;57789;53.868;10.728;2022-08-14T14:00:06;13.10;;;4.67;;
70367;SDS011;57789;53.868;10.728;2022-08-14T14:02:36;9.20;;;4.03;;
70367;SDS011;57789;53.868;10.728;2022-08-14T14:05:03;6.97;;;4.10;;
70367;SDS011;57789;53.868;10.728;2022-08-14T14:07:29;9.23;;;2.87;;
70367;SDS011;57789;53.868;10.728;2022-08-14T14:09:59;12.13;;;3.70;;
70367;SDS011;57789;53.868;10.728;2022-08-14T14:12:30;9.67;;;3.00;;
70367;SDS011;57789;53.868;10.728;2022-08-14T14:15:00;5.63;;;2.80;;
70367;SDS011;57789;53.868;10.728;2022-08-14T14:17:26;3.77;;;2.13;;
70367;SDS011;57789;53.868;10.728;2022-08-14T14:19:53;4.30;;;2.67;;
70367;SDS011;57789;53.868;10.728;2022-08-14T14:22:19;8.20;;;2.57;;
70367;SDS011;57789;53.868;10.728;2022-08-14T14:24:44;5.20;;;2.73;;
70367;SDS011;57789;53.868;10.728;2022-08-14T14:27:11;3.90;;;2.23;;
70367;SDS011;57789;53.868;10.728;2022-08-14T14:29:44;10.40;;;2.80;;
70367;SDS011;57789;53.868;10.728;2022-08-14T14:32:15;5.37;;;3.30;;
70367;SDS011;57789;53.868;10.728;2022-08-14T14:34:42;8.03;;;3.20;;
70367;SDS011;57789;53.868;10.728;2022-08-14T14:37:11;7.23;;;3.60;;
70367;SDS011;57789;53.868;10.728;2022-08-14T14:39:39;4.80;;;2.40;;
70367;SDS011;57789;53.868;10.728;2022-08-14T14:42:06;5.80;;;3.53;;
70367;SDS011;57789;53.868;10.728;2022-08-14T14:44:34;7.13;;;3.17;;
70367;SDS011;57789;53.868;10.728;2022-08-14T14:47:07;8.40;;;2.57;;
70367;SDS011;57789;53.868;10.728;2022-08-14T14:49:34;8.00;;;2.73;;
70367;SDS011;57789;53.868;10.728;2022-08-14T14:52:01;8.20;;;2.17;;
70367;SDS011;57789;53.868;10.728;2022-08-14T14:54:29;12.63;;;2.70;;
70367;SDS011;57789;53.868;10.728;2022-08-14T14:56:57;9.10;;;2.63;;
70367;SDS011;57789;53.868;10.728;2022-08-14T14:59:27;6.37;;;2.30;;
70367;SDS011;57789;53.868;10.728;2022-08-14T15:01:58;4.80;;;2.70;;
70367;SDS011;57789;53.868;10.728;2022-08-14T15:04:26;10.80;;;2.53;;
70367;SDS011;57789;53.868;10.728;2022-08-14T15:06:51;12.83;;;2.77;;